createdAt,value
2023-07-03T00:00:19.615Z,19.67
2023-07-03T00:02:52.560Z,19.66
2023-07-03T00:05:20.796Z,19.66
2023-07-03T00:07:49.064Z,19.65
2023-07-03T00:10:17.809Z,19.63
2023-07-03T00:12:46.928Z,19.63
2023-07-03T00:15:15.320Z,19.62
2023-07-03T00:17:45.601Z,19.61
2023-07-03T00:20:15.713Z,19.60
2023-07-03T00:22:44.110Z,19.59
2023-07-03T00:25:12.031Z,19.59
2023-07-03T00:27:39.848Z,19.58
2023-07-03T00:30:10.334Z,19.58
2023-07-03T00:32:38.159Z,19.57
2023-07-03T00:35:07.848Z,19.56
2023-07-03T00:37:36.039Z,19.55
2023-07-03T00:40:04.816Z,19.55
2023-07-03T00:42:32.590Z,19.54
2023-07-03T00:45:00.339Z,19.53
2023-07-03T00:47:29.754Z,19.53
2023-07-03T00:49:57.614Z,19.52
2023-07-03T00:52:25.469Z,19.50
2023-07-03T00:54:54.522Z,19.50
2023-07-03T00:57:24.549Z,19.47
2023-07-03T00:59:52.456Z,19.47
2023-07-03T01:02:27.172Z,19.46
2023-07-03T01:05:01.857Z,19.44
2023-07-03T01:07:33.146Z,19.43
2023-07-03T01:10:07.038Z,19.42
2023-07-03T01:12:39.363Z,19.41
2023-07-03T01:15:11.183Z,19.39
2023-07-03T01:17:42.046Z,19.39
2023-07-03T01:20:18.106Z,19.36
2023-07-03T01:22:52.921Z,19.36
2023-07-03T01:25:25.448Z,19.36
2023-07-03T01:27:54.388Z,19.34
2023-07-03T01:30:23.566Z,19.32
2023-07-03T01:32:54.742Z,19.32
2023-07-03T01:35:24.957Z,19.31
2023-07-03T01:37:55.280Z,19.30
2023-07-03T01:40:27.614Z,19.29
2023-07-03T01:42:57.308Z,19.28
2023-07-03T01:45:25.097Z,19.27
2023-07-03T01:47:52.850Z,19.25
2023-07-03T01:50:24.765Z,19.24
2023-07-03T01:52:56.572Z,19.22
2023-07-03T01:55:33.096Z,19.22
2023-07-03T01:58:04.670Z,19.21
2023-07-03T02:00:37.033Z,19.21
2023-07-03T02:03:12.376Z,19.19
2023-07-03T02:05:41.387Z,19.18
2023-07-03T02:08:11.198Z,19.18
2023-07-03T02:10:42.130Z,19.15
2023-07-03T02:13:09.860Z,19.17
2023-07-03T02:15:37.674Z,19.16
2023-07-03T02:18:05.786Z,19.14
2023-07-03T02:20:33.687Z,19.13
2023-07-03T02:23:01.415Z,19.12
2023-07-03T02:25:29.400Z,19.12
2023-07-03T02:27:58.525Z,19.11
2023-07-03T02:30:26.543Z,19.11
2023-07-03T02:32:54.442Z,19.11
2023-07-03T02:35:22.245Z,19.10
2023-07-03T02:37:49.932Z,19.08
2023-07-03T02:40:17.931Z,19.07
2023-07-03T02:42:45.670Z,19.07
2023-07-03T02:45:14.949Z,19.06
2023-07-03T02:47:42.657Z,19.04
2023-07-03T02:50:11.209Z,19.03
2023-07-03T02:52:39.109Z,19.02
2023-07-03T02:55:07.686Z,19.01
2023-07-03T02:57:35.416Z,18.99
2023-07-03T03:00:03.456Z,18.99
2023-07-03T03:02:32.609Z,18.98
2023-07-03T03:05:00.393Z,18.96
2023-07-03T03:07:29.286Z,18.96
2023-07-03T03:09:57.019Z,18.94
2023-07-03T03:12:24.804Z,18.94
2023-07-03T03:14:52.854Z,18.93
2023-07-03T03:17:20.578Z,18.93
2023-07-03T03:19:49.929Z,18.90
2023-07-03T03:22:17.682Z,18.89
2023-07-03T03:24:45.675Z,18.88
2023-07-03T03:27:14.577Z,18.87
2023-07-03T03:29:42.911Z,18.86
2023-07-03T03:32:10.952Z,18.86
2023-07-03T03:34:38.694Z,18.85
2023-07-03T03:37:08.061Z,18.84
2023-07-03T03:39:35.804Z,18.84
2023-07-03T03:42:03.532Z,18.84
2023-07-03T03:44:31.279Z,18.83
2023-07-03T03:46:59.036Z,18.82
2023-07-03T03:49:26.766Z,18.83
2023-07-03T03:51:55.023Z,18.80
2023-07-03T03:54:24.131Z,18.80
2023-07-03T03:56:51.899Z,18.80
2023-07-03T03:59:20.968Z,18.78
2023-07-03T04:01:49.568Z,18.79
2023-07-03T04:04:17.789Z,18.78
2023-07-03T04:06:45.612Z,18.77
2023-07-03T04:09:14.004Z,18.76
2023-07-03T04:11:43.170Z,18.74
2023-07-03T04:14:11.122Z,18.74
2023-07-03T04:16:38.998Z,18.71
2023-07-03T04:19:06.844Z,18.71
2023-07-03T04:21:34.597Z,18.69
2023-07-03T04:24:02.361Z,18.69
2023-07-03T04:26:30.112Z,18.69
2023-07-03T04:28:59.372Z,18.67
2023-07-03T04:31:27.261Z,18.68
2023-07-03T04:33:55.062Z,18.67
2023-07-03T04:36:23.050Z,18.67
2023-07-03T04:38:50.818Z,18.67
2023-07-03T04:41:19.514Z,18.66
2023-07-03T04:43:49.302Z,18.66
2023-07-03T04:46:19.848Z,18.66
2023-07-03T04:48:47.996Z,18.65
2023-07-03T04:51:15.936Z,18.65
2023-07-03T04:53:43.721Z,18.64
2023-07-03T04:56:12.514Z,18.62
2023-07-03T04:58:41.417Z,18.62
2023-07-03T05:01:13.270Z,18.61
2023-07-03T05:03:42.768Z,18.61
2023-07-03T05:06:10.757Z,18.62
2023-07-03T05:08:38.540Z,18.60
2023-07-03T05:11:06.666Z,18.61
2023-07-03T05:13:34.396Z,18.59
2023-07-03T05:16:02.277Z,18.69
2023-07-03T05:18:30.088Z,18.65
2023-07-03T05:20:59.224Z,18.61
2023-07-03T05:23:26.956Z,18.60
2023-07-03T05:25:54.708Z,18.60
2023-07-03T05:28:22.885Z,18.59
2023-07-03T05:30:55.428Z,18.58
2023-07-03T05:33:23.237Z,18.58
2023-07-03T05:35:54.558Z,18.66
2023-07-03T05:38:24.029Z,18.62
2023-07-03T05:40:51.910Z,18.61
2023-07-03T05:43:19.878Z,18.69
2023-07-03T05:45:49.173Z,18.64
2023-07-03T05:48:17.405Z,18.70
2023-07-03T05:50:46.044Z,18.75
2023-07-03T05:53:13.914Z,18.79
2023-07-03T05:55:44.674Z,18.76
2023-07-03T05:58:12.684Z,18.73
2023-07-03T06:00:40.695Z,18.70
2023-07-03T06:03:12.622Z,18.70
2023-07-03T06:05:40.459Z,18.85
2023-07-03T06:08:08.243Z,18.84
2023-07-03T06:10:36.014Z,18.81
2023-07-03T06:13:05.435Z,18.80
2023-07-03T06:15:35.592Z,18.82
2023-07-03T06:18:04.574Z,18.80
2023-07-03T06:20:32.614Z,18.80
2023-07-03T06:23:00.347Z,18.79
2023-07-03T06:25:28.301Z,18.78
2023-07-03T06:27:56.109Z,18.78
2023-07-03T06:30:25.339Z,18.78
2023-07-03T06:32:53.171Z,18.79
2023-07-03T06:35:21.167Z,18.77
2023-07-03T06:37:48.972Z,18.77
2023-07-03T06:40:17.259Z,18.80
2023-07-03T06:42:45.288Z,18.78
2023-07-03T06:45:14.042Z,18.87
2023-07-03T06:47:43.162Z,19.04
2023-07-03T06:50:11.549Z,19.04
2023-07-03T06:52:39.595Z,18.95
2023-07-03T06:55:07.787Z,18.88
2023-07-03T06:57:35.735Z,18.85
2023-07-03T07:00:06.733Z,18.82
2023-07-03T07:02:34.630Z,18.81
2023-07-03T07:05:04.319Z,18.90
2023-07-03T07:07:32.327Z,18.86
2023-07-03T07:10:00.136Z,18.80
2023-07-03T07:12:27.941Z,18.80
2023-07-03T07:14:55.734Z,18.79
2023-07-03T07:17:26.075Z,18.85
2023-07-03T07:20:01.191Z,18.85
2023-07-03T07:22:30.322Z,18.84
2023-07-03T07:24:58.065Z,18.82
2023-07-03T07:27:25.967Z,18.82
2023-07-03T07:29:53.693Z,18.89
2023-07-03T07:32:22.625Z,18.83
2023-07-03T07:34:50.427Z,18.83
2023-07-03T07:37:18.296Z,18.84
2023-07-03T07:39:47.518Z,18.83
2023-07-03T07:42:15.299Z,18.84
2023-07-03T07:44:43.028Z,18.89
2023-07-03T07:47:11.484Z,18.88
2023-07-03T07:49:40.971Z,18.88
2023-07-03T07:52:09.537Z,19.01
2023-07-03T07:54:37.311Z,18.94
2023-07-03T07:57:07.046Z,18.96
2023-07-03T07:59:35.750Z,18.93
2023-07-03T08:02:04.185Z,18.91
2023-07-03T08:04:32.125Z,18.90
2023-07-03T08:07:01.615Z,18.93
2023-07-03T08:09:29.395Z,18.92
2023-07-03T08:11:57.398Z,18.94
2023-07-03T08:14:26.520Z,18.91
2023-07-03T08:16:54.369Z,18.91
2023-07-03T08:19:22.312Z,18.88
2023-07-03T08:21:50.083Z,18.91
2023-07-03T08:24:18.499Z,18.94
2023-07-03T08:26:50.296Z,18.94
2023-07-03T08:29:18.074Z,18.94
2023-07-03T08:31:47.354Z,18.94
2023-07-03T08:34:15.749Z,18.90
2023-07-03T08:39:15.459Z,18.97
2023-07-03T08:41:52.577Z,18.97
2023-07-03T08:44:20.534Z,19.05
2023-07-03T08:47:06.158Z,19.00
2023-07-03T08:49:42.051Z,19.02
2023-07-03T08:52:10.021Z,19.09
2023-07-03T08:54:39.672Z,19.08
2023-07-03T08:57:11.848Z,19.07
2023-07-03T08:59:39.793Z,19.06
2023-07-03T09:02:16.729Z,19.07
2023-07-03T09:05:02.252Z,19.07
2023-07-03T09:07:36.476Z,19.15
2023-07-03T09:10:14.074Z,19.17
2023-07-03T09:12:50.461Z,19.17
2023-07-03T09:15:24.112Z,19.16
2023-07-03T09:17:55.273Z,19.16
2023-07-03T09:20:26.091Z,19.24
2023-07-03T09:22:59.601Z,19.31
2023-07-03T09:25:34.052Z,19.32
2023-07-03T09:28:05.143Z,19.31
2023-07-03T09:30:33.987Z,19.33
2023-07-03T09:33:03.369Z,19.39
2023-07-03T09:35:36.330Z,19.41
2023-07-03T09:38:06.647Z,19.39
2023-07-03T09:40:38.533Z,19.36
2023-07-03T09:43:14.072Z,19.36
2023-07-03T09:45:44.340Z,19.38
2023-07-03T09:48:19.833Z,19.39
2023-07-03T09:51:01.908Z,19.40
2023-07-03T09:53:34.747Z,19.40
2023-07-03T09:56:03.645Z,19.39
2023-07-03T09:58:32.138Z,19.40
2023-07-03T10:01:02.181Z,19.41
2023-07-03T10:03:34.005Z,19.48
2023-07-03T10:08:48.677Z,19.58
2023-07-03T10:11:23.766Z,19.59
2023-07-03T10:13:53.335Z,19.58
2023-07-03T10:16:24.638Z,19.60
2023-07-03T10:18:56.488Z,19.58
2023-07-03T10:21:25.283Z,19.60
2023-07-03T10:23:53.964Z,19.69
2023-07-03T10:26:25.872Z,19.72
2023-07-03T10:28:59.619Z,19.75
2023-07-03T10:31:34.980Z,19.85
2023-07-03T10:34:08.414Z,19.81
2023-07-03T10:36:37.857Z,19.81
2023-07-03T10:39:11.289Z,19.80
2023-07-03T10:41:45.525Z,19.89
2023-07-03T10:44:18.248Z,19.89
2023-07-03T10:46:51.907Z,19.89
2023-07-03T10:49:26.657Z,19.90
2023-07-03T10:52:04.588Z,19.91
2023-07-03T10:54:38.338Z,19.91
2023-07-03T10:57:08.516Z,19.92
2023-07-03T10:59:41.579Z,19.98
2023-07-03T11:02:22.452Z,19.97
2023-07-03T11:05:00.128Z,19.98
2023-07-03T11:07:35.004Z,19.97
2023-07-03T11:10:10.962Z,19.96
2023-07-03T11:12:46.250Z,19.89
2023-07-03T11:15:24.830Z,19.95
2023-07-03T11:23:18.180Z,20.03
2023-07-03T11:28:33.397Z,20.21
2023-07-03T11:31:03.687Z,20.25
2023-07-03T11:36:06.928Z,20.29
2023-07-03T11:43:44.501Z,20.33
2023-07-03T11:46:18.985Z,20.34
2023-07-03T11:48:50.616Z,20.41
2023-07-03T11:51:34.194Z,20.39
2023-07-03T11:54:14.528Z,20.42
2023-07-03T11:56:52.107Z,20.48
2023-07-03T11:59:30.329Z,20.45
2023-07-03T12:02:46.661Z,20.43
2023-07-03T12:05:53.142Z,20.39
2023-07-03T12:08:45.027Z,20.39
2023-07-03T12:11:14.159Z,20.41
2023-07-03T12:13:52.242Z,20.37
2023-07-03T12:16:22.418Z,20.40
2023-07-03T12:19:02.226Z,20.44
2023-07-03T12:21:38.981Z,20.45
2023-07-03T12:24:21.408Z,20.48
2023-07-03T12:26:58.931Z,20.50
2023-07-03T12:29:26.672Z,20.52
2023-07-03T12:31:59.638Z,20.54
2023-07-03T12:34:28.082Z,20.62
2023-07-03T12:37:02.442Z,20.58
2023-07-03T12:39:32.978Z,20.63
2023-07-03T12:42:11.961Z,20.65
2023-07-03T12:44:40.061Z,20.63
2023-07-03T12:47:10.292Z,20.60
2023-07-03T12:50:00.807Z,20.65
2023-07-03T12:52:31.126Z,20.63
2023-07-03T12:57:35.462Z,20.59
2023-07-03T13:00:04.339Z,20.58
2023-07-03T13:02:33.317Z,20.59
2023-07-03T13:05:04.010Z,20.59
2023-07-03T13:07:32.656Z,20.56
2023-07-03T13:10:11.750Z,20.54
2023-07-03T13:12:41.015Z,20.52
2023-07-03T13:15:11.972Z,20.59
2023-07-03T13:17:41.677Z,20.57
2023-07-03T13:20:22.294Z,20.57
2023-07-03T13:22:52.224Z,20.56
2023-07-03T13:25:30.921Z,20.58
2023-07-03T13:27:59.326Z,20.58
2023-07-03T13:30:32.966Z,20.54
2023-07-03T13:33:03.347Z,20.52
2023-07-03T13:35:35.288Z,20.51
2023-07-03T13:38:14.964Z,20.56
2023-07-03T13:40:44.064Z,20.56
2023-07-03T13:43:11.786Z,20.60
2023-07-03T13:45:39.926Z,20.60
2023-07-03T13:48:08.276Z,20.61
2023-07-03T13:50:36.067Z,20.60
2023-07-03T13:53:03.912Z,20.62
2023-07-03T13:55:32.000Z,20.62
2023-07-03T13:58:01.085Z,20.61
2023-07-03T14:00:29.041Z,20.63
2023-07-03T14:02:57.278Z,20.63
2023-07-03T14:05:25.165Z,20.62
2023-07-03T14:07:52.944Z,20.64
2023-07-03T14:10:20.751Z,20.63
2023-07-03T14:12:48.507Z,20.74
2023-07-03T14:15:21.580Z,20.61
2023-07-03T14:17:49.398Z,20.58
2023-07-03T14:20:17.297Z,20.59
2023-07-03T14:22:45.428Z,20.60
2023-07-03T14:25:14.922Z,20.64
2023-07-03T14:27:42.876Z,20.63
2023-07-03T14:30:12.472Z,20.64
2023-07-03T14:32:54.846Z,20.62
2023-07-03T14:35:23.827Z,20.67
2023-07-03T14:37:51.600Z,20.71
2023-07-03T14:40:19.430Z,20.70
2023-07-03T14:42:48.100Z,20.72
2023-07-03T14:45:16.050Z,20.74
2023-07-03T14:47:45.317Z,20.80
2023-07-03T14:50:13.709Z,20.78
2023-07-03T14:52:43.676Z,20.78
2023-07-03T14:55:11.916Z,20.79
2023-07-03T14:57:39.924Z,20.76
2023-07-03T15:00:09.861Z,20.79
2023-07-03T15:02:38.692Z,20.80
2023-07-03T15:05:09.094Z,20.83
2023-07-03T15:07:36.917Z,20.82
2023-07-03T15:10:05.033Z,20.83
2023-07-03T15:12:32.950Z,20.80
2023-07-03T15:15:00.795Z,20.79
2023-07-03T15:17:28.991Z,20.81
2023-07-03T15:19:56.991Z,20.82
2023-07-03T15:22:26.261Z,20.88
2023-07-03T15:24:54.026Z,20.89
2023-07-03T15:27:21.805Z,20.89
2023-07-03T15:29:49.554Z,20.90
2023-07-03T15:32:17.350Z,20.91
2023-07-03T15:34:45.105Z,20.96
2023-07-03T15:37:12.827Z,20.99
2023-07-03T15:39:42.152Z,20.96
2023-07-03T15:42:10.422Z,20.96
2023-07-03T15:44:38.236Z,21.00
2023-07-03T15:47:08.661Z,21.01
2023-07-03T15:49:37.618Z,21.03
2023-07-03T15:52:06.023Z,21.06
2023-07-03T15:54:38.189Z,21.08
2023-07-03T15:57:08.656Z,21.03
2023-07-03T15:59:37.107Z,20.93
2023-07-03T16:02:05.011Z,21.01
2023-07-03T16:04:32.796Z,21.04
2023-07-03T16:07:00.610Z,21.04
2023-07-03T16:09:28.365Z,21.00
2023-07-03T16:11:56.110Z,21.04
2023-07-03T16:14:25.271Z,21.05
2023-07-03T16:16:53.062Z,21.04
2023-07-03T16:19:20.865Z,21.00
2023-07-03T16:21:48.634Z,21.03
2023-07-03T16:24:16.414Z,20.99
2023-07-03T16:26:44.144Z,20.89
2023-07-03T16:29:12.001Z,21.05
2023-07-03T16:31:42.743Z,21.05
2023-07-03T16:34:12.438Z,21.12
2023-07-03T16:36:40.191Z,21.10
2023-07-03T16:39:07.948Z,21.03
2023-07-03T16:41:38.456Z,21.16
2023-07-03T16:44:06.245Z,21.16
2023-07-03T16:46:36.421Z,21.13
2023-07-03T16:49:07.892Z,21.11
2023-07-03T16:51:35.709Z,21.10
2023-07-03T16:54:03.503Z,21.11
2023-07-03T16:56:33.448Z,21.11
2023-07-03T16:59:01.303Z,21.16
2023-07-03T17:01:31.188Z,21.18
2023-07-03T17:03:59.126Z,21.20
2023-07-03T17:06:31.827Z,21.20
2023-07-03T17:09:00.488Z,21.23
2023-07-03T17:11:28.427Z,21.23
2023-07-03T17:13:56.507Z,21.26
2023-07-03T17:16:24.403Z,21.25
2023-07-03T17:18:52.167Z,21.23
2023-07-03T17:21:19.925Z,21.22
2023-07-03T17:23:51.753Z,21.22
2023-07-03T17:26:19.553Z,21.22
2023-07-03T17:28:48.541Z,21.18
2023-07-03T17:31:16.361Z,21.19
2023-07-03T17:33:44.222Z,21.11
2023-07-03T17:36:11.976Z,21.20
2023-07-03T17:38:39.693Z,21.21
2023-07-03T17:41:08.800Z,21.22
2023-07-03T17:43:37.840Z,21.21
2023-07-03T17:46:05.832Z,21.21
2023-07-03T17:48:33.763Z,21.19
2023-07-03T17:51:01.666Z,21.17
2023-07-03T17:53:29.425Z,21.24
2023-07-03T17:55:57.265Z,21.28
2023-07-03T17:58:26.493Z,21.28
2023-07-03T18:00:59.945Z,21.25
2023-07-03T18:03:27.838Z,21.26
2023-07-03T18:05:56.487Z,21.19
2023-07-03T18:08:24.497Z,21.20
2023-07-03T18:10:52.741Z,21.27
2023-07-03T18:13:20.652Z,21.25
2023-07-03T18:15:50.452Z,21.28
2023-07-03T18:18:20.636Z,21.29
2023-07-03T18:20:48.663Z,21.27
2023-07-03T18:23:16.468Z,21.29
2023-07-03T18:25:44.245Z,21.29
2023-07-03T18:28:12.288Z,21.30
2023-07-03T18:30:40.094Z,21.24
2023-07-03T18:33:09.265Z,21.24
2023-07-03T18:35:37.809Z,21.25
2023-07-03T18:38:06.275Z,21.27
2023-07-03T18:40:34.318Z,21.24
2023-07-03T18:43:02.352Z,21.22
2023-07-03T18:45:30.068Z,21.16
2023-07-03T18:47:57.850Z,21.12
2023-07-03T18:50:27.035Z,21.07
2023-07-03T18:52:54.831Z,21.06
2023-07-03T18:55:23.223Z,21.04
2023-07-03T18:57:51.356Z,21.01
2023-07-03T19:00:19.355Z,21.05
2023-07-03T19:02:47.184Z,21.01
2023-07-03T19:05:15.317Z,21.05
2023-07-03T19:07:44.830Z,21.04
2023-07-03T19:10:18.290Z,21.01
2023-07-03T19:12:46.758Z,20.96
2023-07-03T19:15:14.647Z,21.01
2023-07-03T19:17:42.604Z,21.01
2023-07-03T19:20:14.058Z,20.96
2023-07-03T19:22:42.010Z,20.93
2023-07-03T19:25:11.474Z,20.89
2023-07-03T19:27:39.249Z,20.87
2023-07-03T19:30:09.827Z,20.86
2023-07-03T19:32:37.639Z,20.85
2023-07-03T19:35:07.069Z,20.85
2023-07-03T19:37:34.860Z,20.87
2023-07-03T19:40:05.818Z,20.84
2023-07-03T19:42:35.821Z,20.91
2023-07-03T19:45:04.112Z,20.87
2023-07-03T19:47:31.936Z,20.88
2023-07-03T19:49:59.810Z,20.81
2023-07-03T19:52:28.066Z,20.86
2023-07-03T19:54:56.645Z,20.85
2023-07-03T19:57:24.421Z,20.80
2023-07-03T19:59:55.386Z,20.75
2023-07-03T20:02:23.150Z,20.76
2023-07-03T20:04:51.055Z,20.76
2023-07-03T20:07:18.851Z,20.73
2023-07-03T20:09:47.359Z,20.71
2023-07-03T20:12:15.153Z,20.70
2023-07-03T20:14:44.397Z,20.68
2023-07-03T20:17:13.629Z,20.67
2023-07-03T20:19:41.444Z,20.66
2023-07-03T20:22:09.232Z,20.65
2023-07-03T20:24:37.026Z,20.63
2023-07-03T20:27:05.371Z,20.60
2023-07-03T20:29:33.203Z,20.57
2023-07-03T20:32:01.453Z,20.57
2023-07-03T20:34:30.630Z,20.57
2023-07-03T20:36:58.452Z,20.54
2023-07-03T20:39:26.188Z,20.51
2023-07-03T20:41:53.944Z,20.52
2023-07-03T20:44:21.834Z,20.48
2023-07-03T20:46:51.312Z,20.48
2023-07-03T20:49:19.712Z,20.46
2023-07-03T20:51:53.804Z,20.44
2023-07-03T20:54:34.262Z,20.42
2023-07-03T20:57:03.066Z,20.43
2023-07-03T20:59:30.995Z,20.43
2023-07-03T21:01:58.805Z,20.37
2023-07-03T21:04:26.988Z,20.43
2023-07-03T21:06:56.369Z,20.42
2023-07-03T21:09:24.160Z,20.41
2023-07-03T21:11:51.941Z,20.39
2023-07-03T21:14:19.985Z,20.38
2023-07-03T21:16:47.895Z,20.36
2023-07-03T21:19:15.859Z,20.35
2023-07-03T21:21:43.613Z,20.33
2023-07-03T21:24:13.869Z,20.32
2023-07-03T21:26:41.660Z,20.31
2023-07-03T21:29:09.464Z,20.31
2023-07-03T21:31:38.211Z,20.33
2023-07-03T21:34:06.692Z,20.32
2023-07-03T21:36:34.706Z,20.30
2023-07-03T21:39:05.608Z,20.33
2023-07-03T21:41:37.445Z,20.31
2023-07-03T21:44:13.011Z,20.28
2023-07-03T21:46:41.712Z,20.27
2023-07-03T21:49:12.705Z,20.26
2023-07-03T21:51:40.501Z,20.25
2023-07-03T21:54:08.294Z,20.25
2023-07-03T21:56:39.472Z,20.24
2023-07-03T21:59:07.581Z,20.24
2023-07-03T22:01:37.721Z,20.24
2023-07-03T22:04:07.102Z,20.22
2023-07-03T22:06:34.947Z,20.20
2023-07-03T22:09:02.993Z,20.17
2023-07-03T22:11:31.656Z,20.17
2023-07-03T22:14:00.978Z,20.15
2023-07-03T22:16:28.867Z,20.13
2023-07-03T22:18:56.642Z,20.12
2023-07-03T22:21:25.271Z,20.10
2023-07-03T22:23:53.570Z,20.08
2023-07-03T22:26:21.871Z,20.07
2023-07-03T22:28:49.757Z,20.05
2023-07-03T22:31:19.047Z,20.04
2023-07-03T22:33:46.863Z,20.05
2023-07-03T22:36:14.995Z,20.03
2023-07-03T22:38:42.873Z,20.05
2023-07-03T22:41:11.591Z,20.04
2023-07-03T22:43:40.720Z,20.03
2023-07-03T22:46:10.555Z,20.01
2023-07-03T22:48:42.296Z,20.01
2023-07-03T22:51:11.255Z,20.01
2023-07-03T22:53:39.275Z,20.00
2023-07-03T22:56:07.999Z,20.00
2023-07-03T22:58:36.054Z,19.98
2023-07-03T23:01:08.177Z,19.98
2023-07-03T23:03:35.964Z,19.99
2023-07-03T23:06:07.265Z,19.97
2023-07-03T23:08:35.777Z,19.97
2023-07-03T23:11:03.668Z,19.94
2023-07-03T23:13:32.722Z,19.98
2023-07-03T23:16:05.341Z,19.94
2023-07-03T23:18:33.802Z,19.93
2023-07-03T23:21:03.962Z,19.93
2023-07-03T23:23:35.125Z,19.91
2023-07-03T23:26:05.010Z,19.89
2023-07-03T23:28:36.078Z,19.88
2023-07-03T23:31:06.489Z,19.87
2023-07-03T23:33:35.931Z,19.78
2023-07-03T23:36:07.051Z,19.87
2023-07-03T23:38:37.287Z,19.87
2023-07-03T23:41:05.815Z,19.87
2023-07-03T23:43:33.969Z,19.84
2023-07-03T23:46:04.290Z,19.82
2023-07-03T23:48:32.914Z,19.82
2023-07-03T23:51:03.623Z,19.81
2023-07-03T23:53:33.507Z,19.80
2023-07-03T23:56:05.632Z,19.80
2023-07-03T23:58:35.119Z,19.76
